Dalton, Missouri
Current Conditions -  °F | °C
As of 10:55 PM on Sunday 21 Dec 2014 (Local Time) from KVER Reporting Station
Overcast Overcast  
Wind Chill: 34°   Ceiling: 4600
Heat Index: 41°   Visibility: 10mi
Dew Point: 37°   Wind: 13mph
Humidity: 83%   Direction: 140°SE
Pressure: 29.85"   Gusts: NA
Location:  39.4°N, 92.99°W
Report Text: KVER 220455Z AUTO 14011KT 10SM OVC046 05/03 A2985 RMK AO2 T00510025
Loading
Personal Weather Stations






























Interactive Weather Map New forecast layout! Learn more

10-Day Weather Forecast

Advertisements
Track Severe Weather on mobile